Accueil
METAR-TAF:

METAR-TAF

Aéroports :

Aéroport de Castres-Mazamet

Castres, France

latitude: 43-33-25N, longitude: 2-17-21E, altitude: 239 m

Observation

Le bulletin a été fait il y a 31 minutes, à 20:00 UTC
Vent 18 kt de sud-est
Température 10°C
Humidité 76%
Pression 1007 hPa
Visibilité 10 km ou plus
pas de nuages en-dessous de 1500 mètres et pas de cumulonimbus.

METAR: LFCK 202000Z AUTO 13018KT CAVOK 10/06 Q1007 TEMPO 12025G35KT

Heure: 21:31 (20:31 UTC)

Prévision

Le bulletin a été fait il y a 3 heures et 31 minutes, à 17:00 UTC
Prévision valable du 20 à 18 UTC au 21 à 03 UTC
Vent 15 kt de est/sud-est avec des rafales jusqu'à 25 kt
Visibilité 10 km ou plus
pas de nuages en-dessous de 1500 mètres et pas de cumulonimbus.
Temporairement
du 20 à 18 UTC au 20 à 24 UTC
Vent 25 kt de est/sud-est avec des rafales jusqu'à 35 kt

TAF: LFCK 201700Z 2018/2103 12015G25KT CAVOK TEMPO 2018/2024 12025G35KT

Observations et prévisions météorologiques de plus de 4000 aéroports (messages METAR et TAF).

Les stations disponibles sont représentées par des disques jaunes et rouges sur la carte.

Passer la souris dessus pour voir le nom de la station.

Cliquer dessus pour voir les observations et prévisions météorologiques.

Pour changer de carte: cliquez sur les boutons verts avec une croix noire pour zoomer, sur le bouton vert avec un tiret pour effectuer un zoom arrière, ou sur les flèches vertes pour les cartes adjacentes.


METAR-TAF: